Time,TemperatureF,DewpointF,PressureIn,WindDirection,WindDirectionDegrees,WindSpeedMPH,WindSpeedGustMPH,Humidity,HourlyPrecipIn,Conditions,Clouds,dailyrainin,SoftwareType,DateUTC
2013-12-10 00:08:00,16.9,8.0,30.08,WSW,241,8.0,23.0,69,0.00,,,0.00,weatherlink.com 1.10,2013-12-10 05:08:00,
2013-12-10 00:23:00,16.2,8.0,30.08,WNW,291,6.0,23.0,69,0.00,,,0.00,weatherlink.com 1.10,2013-12-10 05:23:00,
2013-12-10 00:38:00,15.6,8.0,30.09,NW,318,6.0,14.0,71,0.00,,,0.00,weatherlink.com 1.10,2013-12-10 05:38:00,
2013-12-10 00:53:00,14.6,7.0,30.09,WNW,297,7.0,13.0,71,0.00,,,0.00,weatherlink.com 1.10,2013-12-10 05:53:00,
2013-12-10 01:08:00,13.6,6.0,30.10,SW,217,5.0,12.0,72,0.00,,,0.00,weatherlink.com 1.10,2013-12-10 06:08:00,
2013-12-10 01:23:00,12.8,5.0,30.11,West,278,3.0,10.0,72,0.00,,,0.00,weatherlink.com 1.10,2013-12-10 06:23:00,
2013-12-10 01:38:00,12.3,5.0,30.11,NW,314,1.0,10.0,73,0.00,,,0.00,weatherlink.com 1.10,2013-12-10 06:38:00,
2013-12-10 01:53:00,12.0,5.0,30.11,NW,316,5.0,12.0,73,0.00,,,0.00,weatherlink.com 1.10,2013-12-10 06:53:00,
2013-12-10 02:08:00,11.4,5.0,30.11,WNW,290,4.0,8.0,74,0.00,,,0.00,weatherlink.com 1.10,2013-12-10 07:08:00,
2013-12-10 02:23:00,11.0,5.0,30.12,West,278,3.0,6.0,75,0.00,,,0.00,weatherlink.com 1.10,2013-12-10 07:23:00,
2013-12-10 02:39:00,10.5,4.0,30.11,WSW,258,1.0,6.0,75,0.00,,,0.00,weatherlink.com 1.10,2013-12-10 07:39:00,
2013-12-10 02:54:00,9.8,4.0,30.12,WSW,253,0.0,4.0,76,0.00,,,0.00,weatherlink.com 1.10,2013-12-10 07:54:00,
2013-12-10 03:09:00,9.1,4.0,30.12,WNW,295,0.0,1.0,78,0.00,,,0.00,weatherlink.com 1.10,2013-12-10 08:09:00,
2013-12-10 03:24:00,8.6,3.0,30.12,West,278,0.0,1.0,79,0.00,,,0.00,weatherlink.com 1.10,2013-12-10 08:24:00,
2013-12-10 03:39:00,8.6,4.0,30.12,NW,305,1.0,1.0,80,0.00,,,0.00,weatherlink.com 1.10,2013-12-10 08:39:00,
2013-12-10 03:54:00,8.5,4.0,30.11,West,260,0.0,1.0,80,0.00,,,0.00,weatherlink.com 1.10,2013-12-10 08:54:00,
2013-12-10 04:09:00,8.0,3.0,30.11,South,181,0.0,1.0,81,0.00,,,0.00,weatherlink.com 1.10,2013-12-10 09:09:00,
2013-12-10 04:24:00,7.2,3.0,30.10,South,181,0.0,0.0,82,0.00,,,0.00,weatherlink.com 1.10,2013-12-10 09:24:00,
2013-12-10 04:39:00,7.9,4.0,30.10,WSW,246,1.0,1.0,84,0.00,,,0.00,weatherlink.com 1.10,2013-12-10 09:39:00,
2013-12-10 04:54:00,8.5,5.0,30.09,WSW,245,0.0,1.0,84,0.00,,,0.00,weatherlink.com 1.10,2013-12-10 09:54:00,
2013-12-10 05:09:00,8.6,5.0,30.09,South,170,0.0,1.0,83,0.00,,,0.00,weatherlink.com 1.10,2013-12-10 10:09:00,
2013-12-10 05:24:00,7.6,4.0,30.08,South,170,0.0,0.0,84,0.00,,,0.00,weatherlink.com 1.10,2013-12-10 10:24:00,
2013-12-10 05:39:00,6.8,4.0,30.08,SSE,168,0.0,1.0,86,0.00,,,0.00,weatherlink.com 1.10,2013-12-10 10:39:00,
2013-12-10 05:54:00,6.5,3.0,30.08,SSE,167,0.0,0.0,86,0.00,,,0.00,weatherlink.com 1.10,2013-12-10 10:54:00,
2013-12-10 06:09:00,6.5,4.0,30.07,West,260,0.0,1.0,87,0.00,,,0.00,weatherlink.com 1.10,2013-12-10 11:09:00,
2013-12-10 06:24:00,6.8,4.0,30.07,West,260,0.0,0.0,87,0.00,,,0.00,weatherlink.com 1.10,2013-12-10 11:24:00,
2013-12-10 06:39:00,6.7,4.0,30.07,West,260,0.0,0.0,88,0.00,,,0.00,weatherlink.com 1.10,2013-12-10 11:39:00,
2013-12-10 06:54:00,6.7,4.0,30.07,West,260,0.0,0.0,88,0.00,,,0.00,weatherlink.com 1.10,2013-12-10 11:54:00,
2013-12-10 07:09:00,6.4,4.0,30.07,South,169,0.0,1.0,89,0.00,,,0.00,weatherlink.com 1.10,2013-12-10 12:09:00,
2013-12-10 07:39:00,6.8,5.0,30.05,SSE,168,2.0,3.0,90,0.00,,,0.00,weatherlink.com 1.10,2013-12-10 12:39:00,
2013-12-10 07:54:00,7.6,5.0,30.05,SSE,163,2.0,4.0,89,0.00,,,0.00,weatherlink.com 1.10,2013-12-10 12:54:00,
2013-12-10 08:09:00,7.9,5.0,30.04,WSW,238,1.0,6.0,88,0.00,,,0.00,weatherlink.com 1.10,2013-12-10 13:09:00,
2013-12-10 08:24:00,8.0,5.0,30.04,WSW,256,1.0,4.0,87,0.00,,,0.00,weatherlink.com 1.10,2013-12-10 13:24:00,
2013-12-10 08:39:00,8.8,6.0,30.05,SSW,205,3.0,5.0,86,0.00,,,0.00,weatherlink.com 1.10,2013-12-10 13:39:00,
2013-12-10 08:54:00,10.0,6.0,30.04,SSW,198,4.0,8.0,84,0.00,,,0.00,weatherlink.com 1.10,2013-12-10 13:54:00,
2013-12-10 09:09:00,11.3,7.0,30.04,West,262,6.0,10.0,82,0.00,,,0.00,weatherlink.com 1.10,2013-12-10 14:09:00,
2013-12-10 09:24:00,11.7,7.0,30.03,South,180,5.0,12.0,81,0.00,,,0.00,weatherlink.com 1.10,2013-12-10 14:24:00,
2013-12-10 09:39:00,12.0,8.0,30.03,South,169,5.0,14.0,82,0.00,,,0.00,weatherlink.com 1.10,2013-12-10 14:39:00,
2013-12-10 09:54:00,12.6,8.0,30.03,South,188,11.0,13.0,81,0.00,,,0.00,weatherlink.com 1.10,2013-12-10 14:54:00,
2013-12-10 10:09:00,13.7,8.0,30.03,SE,145,7.0,13.0,79,0.00,,,0.00,weatherlink.com 1.10,2013-12-10 15:09:00,
2013-12-10 10:24:00,13.4,8.0,30.03,SW,224,5.0,14.0,78,0.00,,,0.00,weatherlink.com 1.10,2013-12-10 15:24:00,
2013-12-10 10:39:00,13.9,8.0,30.02,West,271,10.0,14.0,76,0.00,,,0.00,weatherlink.com 1.10,2013-12-10 15:39:00,
2013-12-10 10:55:00,14.2,8.0,30.02,WSW,247,6.0,12.0,75,0.00,,,0.00,weatherlink.com 1.10,2013-12-10 15:55:00,
2013-12-10 11:10:00,14.5,7.0,30.02,West,276,9.0,14.0,72,0.00,,,0.00,weatherlink.com 1.10,2013-12-10 16:10:00,
2013-12-10 11:25:00,14.4,6.0,30.01,WSW,252,12.0,16.0,68,0.00,,,0.00,weatherlink.com 1.10,2013-12-10 16:25:00,
2013-12-10 11:40:00,14.5,6.0,29.99,SSW,198,6.0,13.0,68,0.00,,,0.00,weatherlink.com 1.10,2013-12-10 16:40:00,
2013-12-10 11:55:00,15.1,6.0,29.98,SE,139,4.0,14.0,66,0.00,,,0.00,weatherlink.com 1.10,2013-12-10 16:55:00,
2013-12-10 12:10:00,15.9,5.0,29.97,SSW,200,3.0,15.0,62,0.00,,,0.00,weatherlink.com 1.10,2013-12-10 17:10:00,
2013-12-10 12:25:00,16.6,4.0,29.96,SSW,197,8.0,18.0,58,0.00,,,0.00,weatherlink.com 1.10,2013-12-10 17:25:00,
2013-12-10 12:40:00,17.4,3.0,29.95,SW,217,7.0,15.0,54,0.00,,,0.00,weatherlink.com 1.10,2013-12-10 17:40:00,
2013-12-10 12:55:00,17.6,3.0,29.95,SW,226,6.0,18.0,54,0.00,,,0.00,weatherlink.com 1.10,2013-12-10 17:55:00,
2013-12-10 13:10:00,18.3,4.0,29.95,WSW,257,9.0,17.0,53,0.00,,,0.00,weatherlink.com 1.10,2013-12-10 18:10:00,
2013-12-10 13:25:00,18.2,3.0,29.94,SW,234,13.0,25.0,52,0.00,,,0.00,weatherlink.com 1.10,2013-12-10 18:25:00,
2013-12-10 13:40:00,19.2,4.0,29.94,SW,229,11.0,21.0,52,0.00,,,0.00,weatherlink.com 1.10,2013-12-10 18:40:00,
2013-12-10 13:55:00,19.7,5.0,29.93,WSW,250,7.0,19.0,52,0.00,,,0.00,weatherlink.com 1.10,2013-12-10 18:55:00,
2013-12-10 14:10:00,19.7,6.0,29.93,SW,218,16.0,21.0,55,0.00,,,0.00,weatherlink.com 1.10,2013-12-10 19:10:00,
2013-12-10 14:25:00,19.4,6.0,29.93,West,276,12.0,20.0,57,0.00,,,0.00,weatherlink.com 1.10,2013-12-10 19:25:00,
2013-12-10 14:40:00,19.7,8.0,29.93,WSW,243,8.0,18.0,60,0.00,,,0.00,weatherlink.com 1.10,2013-12-10 19:40:00,
2013-12-10 14:55:00,19.7,8.0,29.93,WSW,243,13.0,16.0,61,0.00,,,0.00,weatherlink.com 1.10,2013-12-10 19:55:00,
2013-12-10 15:10:00,19.5,9.0,29.94,WNW,290,5.0,17.0,64,0.00,,,0.00,weatherlink.com 1.10,2013-12-10 20:10:00,
2013-12-10 15:25:00,19.3,10.0,29.95,WSW,253,10.0,20.0,67,0.00,,,0.00,weatherlink.com 1.10,2013-12-10 20:25:00,
2013-12-10 15:40:00,19.3,11.0,29.95,West,265,7.0,19.0,70,0.00,,,0.00,weatherlink.com 1.10,2013-12-10 20:40:00,
2013-12-10 15:55:00,19.1,12.0,29.96,SW,215,11.0,19.0,74,0.00,,,0.00,weatherlink.com 1.10,2013-12-10 20:55:00,
2013-12-10 16:10:00,19.3,13.0,29.97,West,280,7.0,19.0,75,0.00,,,0.00,weatherlink.com 1.10,2013-12-10 21:10:00,
2013-12-10 16:25:00,19.5,13.0,29.98,WSW,239,11.0,17.0,76,0.00,,,0.00,weatherlink.com 1.10,2013-12-10 21:25:00,
2013-12-10 16:40:00,19.7,14.0,29.98,WNW,284,9.0,17.0,78,0.00,,,0.00,weatherlink.com 1.10,2013-12-10 21:40:00,
2013-12-10 16:55:00,19.3,14.0,29.99,West,259,5.0,15.0,79,0.00,,,0.00,weatherlink.com 1.10,2013-12-10 21:55:00,
2013-12-10 17:10:00,19.2,14.0,30.00,WSW,240,9.0,15.0,81,0.00,,,0.00,weatherlink.com 1.10,2013-12-10 22:10:00,
2013-12-10 17:25:00,19.2,15.0,30.02,WSW,239,8.0,13.0,82,0.00,,,0.00,weatherlink.com 1.10,2013-12-10 22:25:00,
2013-12-10 17:40:00,19.3,15.0,30.02,West,268,5.0,19.0,83,0.00,,,0.00,weatherlink.com 1.10,2013-12-10 22:40:00,
2013-12-10 17:55:00,19.4,15.0,30.03,WSW,252,9.0,16.0,84,0.00,,,0.00,weatherlink.com 1.10,2013-12-10 22:55:00,
2013-12-10 18:10:00,19.3,16.0,30.03,WSW,242,6.0,13.0,86,0.00,,,0.00,weatherlink.com 1.10,2013-12-10 23:10:00,
2013-12-10 18:25:00,19.2,16.0,30.04,WSW,257,6.0,11.0,86,0.00,,,0.00,weatherlink.com 1.10,2013-12-10 23:25:00,
2013-12-10 18:40:00,19.2,16.0,30.05,West,281,3.0,11.0,86,0.00,,,0.00,weatherlink.com 1.10,2013-12-10 23:40:00,
2013-12-10 18:55:00,19.3,16.0,30.06,West,281,6.0,10.0,86,0.00,,,0.00,weatherlink.com 1.10,2013-12-10 23:55:00,
2013-12-10 19:10:00,19.7,16.0,30.07,West,259,3.0,14.0,85,0.00,,,0.00,weatherlink.com 1.10,2013-12-11 00:10:00,
2013-12-10 19:25:00,19.6,16.0,30.07,WSW,253,3.0,13.0,86,0.00,,,0.00,weatherlink.com 1.10,2013-12-11 00:25:00,
2013-12-10 19:40:00,19.4,16.0,30.08,WSW,240,3.0,11.0,86,0.00,,,0.00,weatherlink.com 1.10,2013-12-11 00:40:00,
2013-12-10 19:55:00,19.0,16.0,30.08,WSW,256,9.0,11.0,87,0.00,,,0.00,weatherlink.com 1.10,2013-12-11 00:55:00,
2013-12-10 20:10:00,18.7,15.0,30.08,NNW,327,5.0,14.0,86,0.00,,,0.00,weatherlink.com 1.10,2013-12-11 01:10:00,
2013-12-10 20:25:00,18.6,15.0,30.09,SW,235,5.0,10.0,86,0.00,,,0.00,weatherlink.com 1.10,2013-12-11 01:25:00,
2013-12-10 20:40:00,18.6,15.0,30.09,NW,319,7.0,12.0,85,0.00,,,0.00,weatherlink.com 1.10,2013-12-11 01:40:00,
2013-12-10 20:55:00,18.3,14.0,30.11,West,273,6.0,14.0,84,0.00,,,0.00,weatherlink.com 1.10,2013-12-11 01:55:00,
2013-12-10 21:10:00,18.3,14.0,30.11,West,266,6.0,15.0,83,0.00,,,0.00,weatherlink.com 1.10,2013-12-11 02:10:00,
2013-12-10 21:25:00,18.1,14.0,30.12,West,269,3.0,15.0,83,0.00,,,0.00,weatherlink.com 1.10,2013-12-11 02:25:00,
2013-12-10 21:40:00,18.0,14.0,30.13,WNW,300,4.0,9.0,83,0.00,,,0.00,weatherlink.com 1.10,2013-12-11 02:40:00,
2013-12-10 21:56:00,18.1,14.0,30.14,WSW,256,2.0,11.0,83,0.00,,,0.00,weatherlink.com 1.10,2013-12-11 02:56:00,
2013-12-10 22:11:00,18.2,14.0,30.15,NW,305,5.0,10.0,83,0.00,,,0.00,weatherlink.com 1.10,2013-12-11 03:11:00,
2013-12-10 22:26:00,18.3,14.0,30.16,NW,307,5.0,17.0,83,0.00,,,0.00,weatherlink.com 1.10,2013-12-11 03:26:00,
2013-12-10 22:56:00,18.2,13.0,30.17,West,276,6.0,18.0,81,0.00,,,0.00,weatherlink.com 1.10,2013-12-11 03:56:00,
2013-12-10 23:11:00,18.0,13.0,30.18,SSW,204,4.0,13.0,80,0.00,,,0.00,weatherlink.com 1.10,2013-12-11 04:11:00,
2013-12-10 23:26:00,17.6,13.0,30.19,NNW,329,4.0,7.0,81,0.00,,,0.00,weatherlink.com 1.10,2013-12-11 04:26:00,
2013-12-10 23:41:00,17.5,12.0,30.18,NW,307,8.0,12.0,79,0.00,,,0.00,weatherlink.com 1.10,2013-12-11 04:41:00,
2013-12-10 23:56:00,17.0,12.0,30.18,NW,307,2.0,11.0,80,0.00,,,0.00,weatherlink.com 1.10,2013-12-11 04:56:00,